West Rancho Bernardo (500) Station Data

Red Flag Warning: No
Fire Weather Zone: 250
SDGE Region: North East
Lat/Lon: 33.031/-117.122

Observations

Time Wind Speed/Gust Temp(F) RH Fuel Moist Fuel Temp(F) Dewpt(F) Tmax(F) Tmin(F) Accum Precip 10-min Precip SL Press(mb)
3/29 8:00am 78 1 G 4 63° 37% - - 37° 64.5° 55.4° - - -
3/29 7:50am 55 1 G 2 62° 37% - - 36° 63.8° 55.4° - - -
3/29 7:40am 341 2 G 3 62° 36% - - 35° 63° 55.4° - - -
3/29 7:30am 297 2 G 4 63° 31% - - 32° 63° 55.4° - - -
3/29 7:20am 281 1 G 2 62° 30% - - 31° 62.7° 55.4° - - -
3/29 7:10am 348 0 G 2 62° 31% - - 31° 62.6° 55.4° - - -
3/29 7:00am 321 1 G 3 62° 31% - - 31° 62.3° 55.4° - - -
3/29 6:50am 42 3 G 7 62° 31% - - 30° 62.3° 55.4° - - -
3/29 6:40am 8 7 G 10 60° 34% - - 32° 62.3° 55.4° - - -
3/29 6:30am 8 2 G 6 61° 35% - - 33° 62.3° 55.4° - - -
3/29 6:20am 304 1 G 3 60° 39% - - 35° 62.3° 55.4° - - -
3/29 6:10am 246 1 G 3 62° 35% - - 34° 62.3° 55.4° - - -
3/29 6:00am 241 2 G 5 62° 38% - - 35° 62.1° 55.4° - - -
3/29 5:50am 270 1 G 3 61° 40% - - 36° 62.1° 55.4° - - -
3/29 5:40am 57 2 G 4 59° 42% - - 36° 62.1° 55.4° - - -
3/29 5:30am 195 1 G 4 59° 46% - - 38° 62.1° 55.4° - - -
3/29 5:20am 17 10 G 15 60° 43% - - 37° 62.1° 55.4° - - -
3/29 5:10am 16 15 G 17 59° 47% - - 39° 62.1° 55.4° - - -
3/29 5:00am 15 14 G 17 58° 52% - - 41° 62.1° 55.4° - - -
3/29 4:50am 195 3 G 11 56° 60% - - 43° 62.1° 55.4° - - -
3/29 4:40am 10 11 G 14 58° 58% - - 43° 62.1° 55.4° - - -
3/29 4:30am 8 11 G 12 59° 54% - - 42° 62.1° 55.4° - - -
3/29 4:20am 6 8 G 12 59° 55% - - 43° 62.1° 55.4° - - -
3/29 4:10am 9 8 G 11 59° 54% - - 42° 62.1° 55.4° - - -
3/29 4:00am 16 11 G 12 59° 54% - - 42° 62.1° 55.4° - - -
3/29 3:50am 17 11 G 14 59° 53% - - 42° 62.1° 55.4° - - -
3/29 3:40am 14 11 G 13 59° 53% - - 42° 62.1° 55.4° - - -
3/29 3:30am 13 13 G 14 59° 54% - - 42° 62.1° 55.4° - - -
3/29 3:20am 10 13 G 15 58° 55% - - 42° 62.1° 55.4° - - -
3/29 3:10am 10 11 G 15 58° 55% - - 42° 62.1° 55.4° - - -
3/29 3:00am 14 13 G 15 58° 57% - - 43° 62.1° 55.4° - - -
3/29 2:50am 12 12 G 15 58° 57% - - 43° 62.1° 55.4° - - -
3/29 2:40am 17 10 G 12 60° 52% - - 43° 62.1° 55.4° - - -
3/29 2:30am 17 11 G 17 59° 56% - - 43° 61.8° 55.4° - - -
3/29 2:20am 19 13 G 16 57° 62% - - 44° 60.9° 55.4° - - -
3/29 2:10am 16 13 G 18 58° 60% - - 44° 60.9° 55.4° - - -
3/29 2:00am 11 10 G 13 60° 51% - - 42° 60.9° 55.4° - - -
3/29 1:50am 12 11 G 14 58° 59% - - 43° 60.9° 55.4° - - -
3/29 1:40am 15 11 G 14 57° 63% - - 44° 60.9° 55.4° - - -
3/29 1:30am 10 10 G 13 58° 58% - - 43° 60.9° 55.4° - - -
3/29 1:20am 10 9 G 12 58° 55% - - 42° 60.9° 55.4° - - -
3/29 1:10am 17 9 G 11 59° 50% - - 41° 60.9° 55.4° - - -
3/29 1:00am 12 8 G 10 59° 51% - - 41° 60.9° 55.4° - - -
3/29 12:50am 16 11 G 15 56° 64% - - 44° 60.9° 55.4° - - -
3/29 12:40am 19 11 G 14 57° 61% - - 43° 60.9° 56° - - -
3/29 12:30am 26 9 G 12 58° 53% - - 41° 60.9° 57.8° - - -
3/29 12:20am 19 7 G 9 59° 49% - - 40° 60.9° 58.7° - - -
3/29 12:10am 23 4 G 7 60° 45% - - 39° 60.9° 59.6° - - -
3/29 12:00am 18 6 G 7 60° 47% - - 39° 69° 47.1° - - -
3/28 11:50pm 38 5 G 7 61° 44% - - 39° 69° 47.1° - - -
3/28 11:40pm 34 6 G 7 60° 46% - - 39° 69° 47.1° - - -
3/28 11:30pm 46 5 G 8 61° 44% - - 39° 69° 47.1° - - -
3/28 11:20pm 42 6 G 8 60° 47% - - 40° 69° 47.1° - - -
3/28 11:10pm 33 7 G 9 60° 50% - - 41° 69° 47.1° - - -
3/28 11:00pm 35 7 G 9 60° 51% - - 42° 69° 47.1° - - -
3/28 10:50pm 29 8 G 10 59° 54% - - 42° 69° 47.1° - - -
3/28 10:40pm 32 9 G 11 59° 54% - - 43° 69° 47.1° - - -
3/28 10:30pm 31 8 G 9 59° 54% - - 43° 69° 47.1° - - -
3/28 10:20pm 36 8 G 9 61° 51% - - 42° 69° 47.1° - - -
3/28 10:10pm 36 7 G 9 60° 53% - - 43° 69° 47.1° - - -
3/28 10:00pm 29 7 G 8 60° 55% - - 43° 69° 47.1° - - -
3/28 9:50pm 33 8 G 9 60° 55% - - 43° 69° 47.1° - - -
3/28 9:40pm 34 8 G 9 60° 52% - - 42° 69° 47.1° - - -
3/28 9:30pm 51 2 G 6 61° 51% - - 43° 69° 47.1° - - -
3/28 9:20pm 69 1 G 2 61° 53% - - 43° 69° 47.1° - - -
3/28 9:10pm 86 1 G 1 61° 53% - - 43° 69° 47.1° - - -
3/28 9:00pm 71 0 G 1 61° 53% - - 43° 69° 47.1° - - -
3/28 8:50pm 55 0 G 1 61° 52% - - 43° 69° 47.1° - - -
3/28 8:40pm 59 1 G 2 61° 52% - - 43° 69° 47.1° - - -
3/28 8:30pm 0 0 G 0 61° 53% - - 43° 69° 47.1° - - -
3/28 8:20pm 334 1 G 2 61° 54% - - 44° 69° 47.1° - - -
3/28 8:10pm 289 1 G 2 60° 53% - - 43° 69° 47.1° - - -
3/28 8:00pm 293 3 G 5 61° 52% - - 43° 69° 47.1° - - -
3/28 7:50pm 294 4 G 6 61° 50% - - 42° 69° 47.1° - - -
3/28 7:40pm 301 4 G 6 61° 49% - - 42° 69° 47.1° - - -
3/28 7:30pm 300 5 G 7 61° 48% - - 41° 69° 47.1° - - -
3/28 7:20pm 294 6 G 8 62° 47% - - 41° 69° 47.1° - - -
3/28 7:10pm 286 3 G 5 62° 47% - - 41° 69° 47.1° - - -
3/28 7:00pm 238 2 G 3 62° 47% - - 42° 69° 47.1° - - -
3/28 6:50pm 265 4 G 6 63° 47% - - 42° 69° 47.1° - - -
3/28 6:40pm 268 6 G 8 63° 46% - - 42° 69° 47.1° - - -
3/28 6:30pm 269 9 G 12 63° 43% - - 40° 69° 47.1° - - -
3/28 6:20pm 269 10 G 13 64° 41% - - 40° 69° 47.1° - - -
3/28 6:10pm 265 11 G 13 64° 40% - - 39° 69° 47.1° - - -
3/28 6:00pm 261 11 G 15 64° 40% - - 39° 69° 47.1° - - -
3/28 5:50pm 273 13 G 17 64° 40% - - 39° 69° 47.1° - - -
3/28 5:40pm 269 13 G 18 64° 38% - - 38° 69° 47.1° - - -
3/28 5:30pm 264 12 G 17 64° 41% - - 40° 69° 47.1° - - -
3/28 5:20pm 260 12 G 17 64° 46% - - 43° 69° 47.1° - - -
3/28 5:10pm 260 16 G 22 64° 48% - - 44° 69° 47.1° - - -
3/28 5:00pm 267 16 G 21 64° 46% - - 43° 69° 47.1° - - -
3/28 4:50pm 262 15 G 21 65° 46% - - 44° 69° 47.1° - - -
3/28 4:40pm 262 16 G 22 65° 45% - - 43° 69° 47.1° - - -
3/28 4:30pm 262 16 G 20 65° 42% - - 42° 69° 47.1° - - -
3/28 4:20pm 269 15 G 19 66° 43% - - 43° 69° 47.1° - - -
3/28 4:10pm 260 15 G 21 66° 43% - - 43° 69° 47.1° - - -
3/28 4:00pm 261 15 G 20 66° 46% - - 44° 69° 47.1° - - -
3/28 3:50pm 264 15 G 22 66° 44% - - 44° 69° 47.1° - - -
3/28 3:40pm 264 14 G 18 66° 41% - - 42° 69° 47.1° - - -
3/28 3:30pm 266 14 G 19 66° 43% - - 43° 69° 47.1° - - -
3/28 3:20pm 262 14 G 19 67° 44% - - 44° 69° 47.1° - - -
3/28 3:10pm 269 13 G 17 67° 43% - - 44° 69° 47.1° - - -
3/28 3:00pm 258 13 G 18 67° 41% - - 42° 69° 47.1° - - -
3/28 2:50pm 253 12 G 18 67° 42% - - 43° 69° 47.1° - - -
3/28 2:40pm 262 12 G 17 67° 44% - - 44° 69° 47.1° - - -
3/28 2:30pm 261 12 G 17 66° 48% - - 46° 69° 47.1° - - -
3/28 2:20pm 257 11 G 15 66° 49% - - 46° 69° 47.1° - - -
3/28 2:10pm 258 10 G 15 66° 50% - - 47° 69° 47.1° - - -
3/28 2:00pm 262 13 G 19 66° 55% - - 49° 69° 47.1° - - -
3/28 1:50pm 263 13 G 18 65° 60% - - 51° 69° 47.1° - - -
3/28 1:40pm 265 12 G 18 65° 59% - - 50° 69° 47.1° - - -
3/28 1:30pm 268 13 G 18 64° 59% - - 50° 69° 47.1° - - -
3/28 1:20pm 268 14 G 20 65° 61% - - 51° 69° 47.1° - - -
3/28 1:10pm 261 13 G 18 65° 63% - - 52° 69° 47.1° - - -
3/28 1:00pm 265 13 G 18 65° 62% - - 51° 69° 47.1° - - -
3/28 12:50pm 267 11 G 16 65° 60% - - 51° 69° 47.1° - - -
3/28 12:40pm 265 12 G 17 64° 58% - - 49° 69° 47.1° - - -
3/28 12:30pm 262 13 G 18 65° 49% - - 45° 69° 47.1° - - -
3/28 12:20pm 268 14 G 18 64° 49% - - 45° 69° 47.1° - - -
3/28 12:10pm 262 13 G 18 64° 53% - - 46° 69° 47.1° - - -
3/28 12:00pm 264 13 G 19 64° 56% - - 48° 69° 47.1° - - -
3/28 11:50am 257 13 G 17 64° 60% - - 50° 69° 47.1° - - -
3/28 11:40am 256 12 G 17 64° 57% - - 49° 69° 47.1° - - -
3/28 11:30am 269 11 G 18 65° 48% - - 45° 69° 47.1° - - -
3/28 11:20am 274 11 G 19 66° 33% - - 36° 69° 47.1° - - -
3/28 11:10am 293 7 G 12 67° 27% - - 32° 69° 47.1° - - -
3/28 11:00am 309 4 G 10 68° 30% - - 35° 69° 47.1° - - -
3/28 10:50am 292 7 G 14 66° 34% - - 36° 66.4° 47.1° - - -
3/28 10:40am 260 5 G 9 63° 54% - - 46° 64.5° 47.1° - - -
3/28 10:30am 259 5 G 9 61° 62% - - 48° 63.2° 47.1° - - -
3/28 10:20am 259 6 G 10 61° 60% - - 47° 63.2° 47.1° - - -
3/28 10:10am 279 7 G 11 62° 53% - - 45° 63.2° 47.1° - - -
3/28 10:00am 164 2 G 4 62° 64% - - 49° 62.8° 47.1° - - -
3/28 9:50am 238 3 G 5 59° 70% - - 50° 60.9° 47.1° - - -
3/28 9:40am 204 4 G 7 60° 73% - - 51° 60.9° 47.1° - - -
3/28 9:30am 57 4 G 8 59° 84% - - 54° 59.6° 47.1° - - -
3/28 9:20am 85 3 G 5 58° 89% - - 55° 59.1° 47.1° - - -
3/28 9:10am 74 4 G 6 56° 96% - - 55° 56.8° 47.1° - - -
3/28 9:00am 70 5 G 7 56° 98% - - 55° 56.5° 47.1° - - -
3/28 8:50am 59 4 G 7 55° 100% - - 55° 55.8° 47.1° - - -
3/28 8:40am 34 4 G 7 53° 100% - - 53° 54.9° 47.1° - - -
3/28 8:30am 63 5 G 9 52° 100% - - 52° 54.9° 47.1° - - -
3/28 8:20am 40 8 G 11 51° 100% - - 51° 54.9° 47.1° - - -
3/28 8:10am 44 7 G 9 50° 100% - - 50° 54.9° 47.1° - - -
3/28 8:00am 50 7 G 8 49° 100% - - 49° 54.9° 47.1° - - -
3/28 7:50am 47 6 G 11 49° 100% - - 49° 54.9° 47.1° - - -
3/28 7:40am 43 10 G 14 48° 100% - - 48° 54.9° 47.1° - - -
3/28 7:30am 44 9 G 12 48° 100% - - 48° 54.9° 47.1° - - -
3/28 7:20am 41 10 G 13 48° 100% - - 48° 54.9° 47.1° - - -
3/28 7:10am 33 11 G 14 48° 100% - - 48° 54.9° 47.1° - - -
3/28 7:00am 34 12 G 14 48° 100% - - 48° 54.9° 47.1° - - -
3/28 6:50am 22 11 G 13 48° 100% - - 48° 54.9° 47.5° - - -
3/28 6:40am 18 7 G 12 50° 100% - - 50° 54.9° 48.8° - - -
3/28 6:30am 36 4 G 8 51° 100% - - 51° 54.9° 49.6° - - -
3/28 6:20am 36 1 G 4 52° 100% - - 52° 54.9° 49.6° - - -
3/28 6:10am 27 2 G 6 51° 100% - - 51° 54.9° 49.6° - - -
3/28 6:00am 75 2 G 4 52° 100% - - 52° 54.9° 49.6° - - -